createdAt,value
2019-03-27T00:01:35.424Z,91.93
2019-03-27T00:07:00.658Z,92.28
2019-03-27T00:12:29.293Z,92.88
2019-03-27T00:17:53.800Z,93.42
2019-03-27T00:23:18.026Z,93.92
2019-03-27T00:28:42.377Z,93.84
2019-03-27T00:34:06.718Z,93.32
2019-03-27T00:39:31.471Z,93.00
2019-03-27T00:44:55.889Z,93.01
2019-03-27T00:50:20.864Z,93.33
2019-03-27T00:55:45.691Z,93.01
2019-03-27T01:01:13.045Z,92.65
2019-03-27T01:06:37.597Z,92.57
2019-03-27T01:12:02.203Z,92.88
2019-03-27T01:17:26.435Z,93.11
2019-03-27T01:22:52.632Z,93.02
2019-03-27T01:28:17.863Z,92.96
2019-03-27T01:33:42.420Z,93.13
2019-03-27T01:39:08.518Z,93.31
2019-03-27T01:44:33.645Z,93.45
2019-03-27T01:49:59.018Z,93.73
2019-03-27T01:55:24.241Z,94.02
2019-03-27T02:00:48.609Z,94.40
2019-03-27T02:06:13.117Z,94.81
2019-03-27T02:11:38.759Z,95.17
2019-03-27T02:17:03.931Z,95.71
2019-03-27T02:22:28.329Z,95.62
2019-03-27T02:27:52.512Z,95.36
2019-03-27T02:33:17.888Z,95.41
2019-03-27T02:38:42.625Z,95.20
2019-03-27T02:44:06.940Z,95.23
2019-03-27T02:49:32.013Z,95.48
2019-03-27T02:54:57.395Z,95.92
2019-03-27T03:00:22.954Z,95.94
2019-03-27T03:05:47.410Z,96.27
2019-03-27T03:11:12.650Z,96.87
2019-03-27T03:16:42.868Z,97.09
2019-03-27T03:22:03.346Z,96.94
2019-03-27T03:27:28.998Z,96.35
2019-03-27T03:32:54.454Z,95.72
2019-03-27T03:38:19.529Z,95.20
2019-03-27T03:43:44.042Z,95.01
2019-03-27T03:49:09.491Z,94.52
2019-03-27T03:54:34.565Z,94.09
2019-03-27T04:00:02.762Z,93.92
2019-03-27T04:05:27.583Z,93.67
2019-03-27T04:10:52.606Z,93.69
2019-03-27T04:16:17.052Z,93.70
2019-03-27T04:21:41.510Z,93.57
2019-03-27T04:27:06.947Z,93.12
2019-03-27T04:32:31.885Z,92.91
2019-03-27T04:37:56.239Z,92.93
2019-03-27T04:43:21.278Z,93.03
2019-03-27T04:48:46.889Z,93.06
2019-03-27T04:54:12.602Z,92.92
2019-03-27T04:59:37.073Z,93.09
2019-03-27T05:05:02.362Z,92.50
2019-03-27T05:10:28.740Z,92.15
2019-03-27T05:15:54.003Z,91.61
2019-03-27T05:21:19.655Z,91.07
2019-03-27T05:26:44.923Z,90.51
2019-03-27T05:32:09.839Z,90.02
2019-03-27T05:37:34.836Z,89.83
2019-03-27T05:43:01.215Z,89.65
2019-03-27T05:48:25.832Z,90.12
2019-03-27T05:53:50.831Z,91.13
2019-03-27T05:59:16.250Z,91.65
2019-03-27T06:04:40.748Z,92.07
2019-03-27T06:10:06.692Z,92.13
2019-03-27T06:15:32.168Z,92.01
2019-03-27T06:20:56.658Z,91.88
2019-03-27T06:26:22.081Z,91.81
2019-03-27T06:31:47.191Z,91.43
2019-03-27T06:37:12.427Z,91.76
2019-03-27T06:42:37.253Z,92.11
2019-03-27T06:48:02.005Z,92.52
2019-03-27T06:53:27.076Z,92.76
2019-03-27T06:58:54.846Z,92.31
2019-03-27T07:04:16.847Z,91.33
2019-03-27T07:09:42.647Z,89.99
2019-03-27T07:15:08.417Z,88.03
2019-03-27T07:20:33.459Z,87.45
2019-03-27T07:25:59.023Z,86.30
2019-03-27T07:31:23.973Z,84.29
2019-03-27T07:36:48.445Z,82.86
2019-03-27T07:42:12.752Z,83.07
2019-03-27T07:47:38.564Z,80.70
2019-03-27T07:53:03.102Z,79.76
2019-03-27T07:58:28.453Z,79.51
2019-03-27T08:03:52.847Z,79.43
2019-03-27T08:09:17.347Z,76.64
2019-03-27T08:14:42.521Z,77.38
2019-03-27T08:20:09.409Z,75.83
2019-03-27T08:25:34.585Z,74.76
2019-03-27T08:30:59.825Z,74.75
2019-03-27T08:36:24.794Z,74.83
2019-03-27T08:41:50.057Z,76.78
2019-03-27T08:47:14.855Z,75.33
2019-03-27T08:52:40.132Z,75.68
2019-03-27T08:58:05.778Z,76.80
2019-03-27T09:03:30.130Z,76.43
2019-03-27T09:08:54.527Z,76.58
2019-03-27T09:14:19.707Z,76.02
2019-03-27T09:19:44.666Z,76.09
2019-03-27T09:25:10.060Z,74.56
2019-03-27T09:30:35.293Z,73.30
2019-03-27T09:35:59.414Z,74.15
2019-03-27T09:41:24.787Z,73.97
2019-03-27T09:46:49.962Z,74.45
2019-03-27T09:52:15.473Z,75.16
2019-03-27T09:57:40.485Z,73.42
2019-03-27T10:03:06.169Z,66.54
2019-03-27T10:08:30.611Z,69.06
2019-03-27T10:13:55.948Z,69.50
2019-03-27T10:19:21.415Z,69.05
2019-03-27T10:24:45.567Z,71.84
2019-03-27T10:30:10.895Z,73.48
2019-03-27T10:35:36.117Z,72.77
2019-03-27T10:41:01.476Z,72.67
2019-03-27T10:46:26.610Z,71.78
2019-03-27T10:51:51.049Z,70.54
2019-03-27T10:57:16.291Z,71.99
2019-03-27T11:02:41.455Z,72.79
2019-03-27T11:08:06.826Z,72.68
2019-03-27T11:13:34.250Z,72.00
2019-03-27T11:18:57.905Z,72.19
2019-03-27T11:24:22.680Z,71.96
2019-03-27T11:29:47.600Z,72.24
2019-03-27T11:35:12.458Z,72.21
2019-03-27T11:40:37.649Z,72.12
2019-03-27T11:46:03.179Z,71.69
2019-03-27T11:51:28.256Z,72.30
2019-03-27T11:56:52.386Z,71.25
2019-03-27T12:02:18.199Z,71.62
2019-03-27T12:07:43.200Z,71.25
2019-03-27T12:13:07.992Z,70.93
2019-03-27T12:18:33.243Z,69.27
2019-03-27T12:23:59.004Z,68.57
2019-03-27T12:29:24.620Z,67.60
2019-03-27T12:34:48.878Z,66.25
2019-03-27T12:40:13.423Z,66.06
2019-03-27T12:45:38.480Z,65.72
2019-03-27T12:51:12.614Z,63.80
2019-03-27T12:56:31.325Z,63.20
2019-03-27T13:01:57.561Z,64.92
2019-03-27T13:07:22.790Z,65.05
2019-03-27T13:12:47.674Z,64.47
2019-03-27T13:18:13.001Z,63.20
2019-03-27T13:23:37.807Z,63.68
2019-03-27T13:29:02.709Z,64.62
2019-03-27T13:34:28.669Z,65.30
2019-03-27T13:39:52.929Z,66.11
2019-03-27T13:45:18.936Z,66.95
2019-03-27T13:50:42.996Z,66.25
2019-03-27T13:56:07.501Z,64.46
2019-03-27T14:01:32.683Z,64.76
2019-03-27T14:06:57.021Z,62.53
2019-03-27T14:12:21.234Z,59.78
2019-03-27T14:17:45.949Z,60.81
2019-03-27T14:23:11.396Z,63.77
2019-03-27T14:28:35.938Z,66.53
2019-03-27T14:34:00.247Z,68.43
2019-03-27T14:39:25.375Z,70.22
2019-03-27T14:44:50.448Z,71.58
2019-03-27T14:50:16.283Z,71.08
2019-03-27T14:55:41.545Z,70.96
2019-03-27T15:01:06.133Z,71.99
2019-03-27T15:06:31.096Z,73.26
2019-03-27T15:11:56.638Z,71.94
2019-03-27T15:17:21.272Z,72.35
2019-03-27T15:22:46.614Z,73.03
2019-03-27T15:28:11.681Z,72.24
2019-03-27T15:33:36.922Z,71.60
2019-03-27T15:39:01.513Z,72.16
2019-03-27T15:44:27.602Z,71.75
2019-03-27T15:49:53.094Z,64.69
2019-03-27T15:55:17.753Z,62.40
2019-03-27T16:00:41.941Z,64.53
2019-03-27T16:06:07.027Z,66.73
2019-03-27T16:11:32.145Z,68.10
2019-03-27T16:17:12.319Z,69.61
2019-03-27T16:22:22.399Z,69.70
2019-03-27T16:27:47.701Z,70.58
2019-03-27T16:33:12.573Z,70.24
2019-03-27T16:38:36.953Z,69.78
2019-03-27T16:44:02.438Z,69.64
2019-03-27T16:49:27.367Z,69.90
2019-03-27T16:54:51.888Z,70.31
2019-03-27T17:00:17.460Z,70.13
2019-03-27T17:05:53.254Z,70.35
2019-03-27T17:11:08.644Z,71.35
2019-03-27T17:16:34.025Z,73.93
2019-03-27T17:21:59.467Z,74.76
2019-03-27T17:27:23.578Z,74.65
2019-03-27T17:32:50.106Z,74.55
2019-03-27T17:38:15.077Z,74.96
2019-03-27T17:43:39.497Z,74.77
2019-03-27T17:49:04.533Z,75.20
2019-03-27T17:54:29.422Z,75.17
2019-03-27T17:59:54.344Z,74.62
2019-03-27T18:05:18.551Z,74.98
2019-03-27T18:10:43.324Z,74.79
2019-03-27T18:16:07.617Z,74.94
2019-03-27T18:21:32.466Z,74.50
2019-03-27T18:26:58.697Z,73.14
2019-03-27T18:32:24.091Z,72.76
2019-03-27T18:37:49.699Z,72.80
2019-03-27T18:43:14.723Z,73.19
2019-03-27T18:48:39.815Z,73.63
2019-03-27T18:54:05.374Z,74.01
2019-03-27T18:59:31.467Z,74.42
2019-03-27T19:04:56.993Z,75.21
2019-03-27T19:10:22.339Z,76.27
2019-03-27T19:15:47.243Z,77.79
2019-03-27T19:21:12.230Z,77.69
2019-03-27T19:26:37.409Z,77.94
2019-03-27T19:32:01.574Z,77.84
2019-03-27T19:37:25.865Z,77.49
2019-03-27T19:42:52.136Z,77.47
2019-03-27T19:48:16.623Z,77.55
2019-03-27T19:53:41.028Z,77.68
2019-03-27T19:59:05.436Z,77.60
2019-03-27T20:04:30.753Z,77.73
2019-03-27T20:09:56.843Z,77.78
2019-03-27T20:15:21.243Z,77.60
2019-03-27T20:20:46.185Z,77.62
2019-03-27T20:26:12.435Z,77.76
2019-03-27T20:31:36.685Z,77.98
2019-03-27T20:37:01.598Z,78.88
2019-03-27T20:42:25.956Z,80.77
2019-03-27T20:47:51.333Z,83.16
2019-03-27T20:53:15.862Z,84.01
2019-03-27T20:58:40.834Z,85.12
2019-03-27T21:04:05.287Z,86.06
2019-03-27T21:09:30.257Z,87.10
2019-03-27T21:14:55.469Z,88.76
2019-03-27T21:20:20.055Z,89.95
2019-03-27T21:25:45.291Z,90.99
2019-03-27T21:31:13.246Z,91.88
2019-03-27T21:36:38.907Z,92.24
2019-03-27T21:42:04.579Z,92.62
2019-03-27T21:47:28.881Z,93.05
2019-03-27T21:53:00.505Z,93.44
2019-03-27T21:58:21.079Z,93.79
2019-03-27T22:03:45.540Z,93.86
2019-03-27T22:09:10.354Z,94.00
2019-03-27T22:14:37.026Z,94.22
2019-03-27T22:20:01.808Z,94.32
2019-03-27T22:25:35.976Z,94.48
2019-03-27T22:30:53.712Z,94.88
2019-03-27T22:36:18.146Z,95.06
2019-03-27T22:41:43.353Z,95.29
2019-03-27T22:47:07.851Z,95.39
2019-03-27T22:52:32.683Z,95.54
2019-03-27T22:57:57.770Z,95.75
2019-03-27T23:03:22.946Z,96.00
2019-03-27T23:08:48.518Z,96.14
2019-03-27T23:14:13.487Z,96.25
2019-03-27T23:19:39.197Z,96.32
2019-03-27T23:25:05.061Z,96.39
2019-03-27T23:30:30.186Z,96.36
2019-03-27T23:35:54.573Z,96.45
2019-03-27T23:41:18.723Z,96.46
2019-03-27T23:46:44.011Z,96.51
2019-03-27T23:52:09.315Z,96.44
2019-03-27T23:57:37.654Z,96.34
